<?xml version="1.0" encoding="UTF-8" standalone="no" ?>
<gpx xmlns="http://www.topografix.com/GPX/1/1" xmlns:xsi="http://www.w3.org/2001/XMLSchema-instance" xsi:schemaLocation="http://www.topografix.com/GPX/1/1 http://www.topografix.com/GPX/1/1/gpx.xsd" version="1.1" creator="VisuGPX - https://www.visugpx.com">
  <metadata>
    <name>Traversée Cras Parménie</name>
    <desc><![CDATA[Balade de printemps en basse altitude]]></desc>
  </metadata>
  <trk>
    <name><![CDATA[cras parmenie]]></name>
    <trkseg>
      <trkpt lat="45.26758" lon="5.44865">
        <ele>340</ele>
        <time>2015-04-02T09:39:02Z</time>
      </trkpt>
      <trkpt lat="45.26771" lon="5.44866">
        <ele>340</ele>
        <time>2015-04-02T09:42:52Z</time>
      </trkpt>
      <trkpt lat="45.26796" lon="5.44873">
        <ele>341</ele>
        <time>2015-04-02T09:43:20Z</time>
      </trkpt>
      <trkpt lat="45.26822" lon="5.44891">
        <ele>341</ele>
        <time>2015-04-02T09:43:49Z</time>
      </trkpt>
      <trkpt lat="45.26852" lon="5.44904">
        <ele>341</ele>
        <time>2015-04-02T09:44:17Z</time>
      </trkpt>
      <trkpt lat="45.26866" lon="5.44917">
        <ele>342</ele>
        <time>2015-04-02T09:45:05Z</time>
      </trkpt>
      <trkpt lat="45.2689" lon="5.44942">
        <ele>342</ele>
        <time>2015-04-02T09:45:27Z</time>
      </trkpt>
      <trkpt lat="45.26944" lon="5.44928">
        <ele>347</ele>
        <time>2015-04-02T09:46:29Z</time>
      </trkpt>
      <trkpt lat="45.26976" lon="5.449">
        <ele>349</ele>
        <time>2015-04-02T09:47:06Z</time>
      </trkpt>
      <trkpt lat="45.26997" lon="5.44864">
        <ele>352</ele>
        <time>2015-04-02T09:47:40Z</time>
      </trkpt>
      <trkpt lat="45.27022" lon="5.44841">
        <ele>355</ele>
        <time>2015-04-02T09:48:15Z</time>
      </trkpt>
      <trkpt lat="45.27047" lon="5.4482">
        <ele>357</ele>
        <time>2015-04-02T09:48:49Z</time>
      </trkpt>
      <trkpt lat="45.27073" lon="5.44818">
        <ele>358</ele>
        <time>2015-04-02T09:49:21Z</time>
      </trkpt>
      <trkpt lat="45.27102" lon="5.44826">
        <ele>360</ele>
        <time>2015-04-02T09:49:51Z</time>
      </trkpt>
      <trkpt lat="45.27132" lon="5.44808">
        <ele>361</ele>
        <time>2015-04-02T09:50:19Z</time>
      </trkpt>
      <trkpt lat="45.27143" lon="5.44767">
        <ele>361</ele>
        <time>2015-04-02T09:50:51Z</time>
      </trkpt>
      <trkpt lat="45.27157" lon="5.4473">
        <ele>366</ele>
        <time>2015-04-02T09:51:22Z</time>
      </trkpt>
      <trkpt lat="45.27168" lon="5.44699">
        <ele>372</ele>
        <time>2015-04-02T09:52:53Z</time>
      </trkpt>
      <trkpt lat="45.27191" lon="5.44711">
        <ele>374</ele>
        <time>2015-04-02T09:56:29Z</time>
      </trkpt>
      <trkpt lat="45.27219" lon="5.44733">
        <ele>376</ele>
        <time>2015-04-02T09:57:04Z</time>
      </trkpt>
      <trkpt lat="45.27243" lon="5.44753">
        <ele>378</ele>
        <time>2015-04-02T09:57:34Z</time>
      </trkpt>
      <trkpt lat="45.27268" lon="5.44772">
        <ele>380</ele>
        <time>2015-04-02T09:58:01Z</time>
      </trkpt>
      <trkpt lat="45.27295" lon="5.44784">
        <ele>382</ele>
        <time>2015-04-02T09:58:31Z</time>
      </trkpt>
      <trkpt lat="45.27318" lon="5.44789">
        <ele>383</ele>
        <time>2015-04-02T09:59:12Z</time>
      </trkpt>
      <trkpt lat="45.27356" lon="5.44797">
        <ele>384</ele>
        <time>2015-04-02T10:00:01Z</time>
      </trkpt>
      <trkpt lat="45.27394" lon="5.44812">
        <ele>385</ele>
        <time>2015-04-02T10:02:01Z</time>
      </trkpt>
      <trkpt lat="45.27436" lon="5.44833">
        <ele>387</ele>
        <time>2015-04-02T10:02:51Z</time>
      </trkpt>
      <trkpt lat="45.27465" lon="5.44838">
        <ele>389</ele>
        <time>2015-04-02T10:03:47Z</time>
      </trkpt>
      <trkpt lat="45.27501" lon="5.44837">
        <ele>391</ele>
        <time>2015-04-02T10:04:21Z</time>
      </trkpt>
      <trkpt lat="45.27524" lon="5.44838">
        <ele>393</ele>
        <time>2015-04-02T10:04:53Z</time>
      </trkpt>
      <trkpt lat="45.2754" lon="5.44839">
        <ele>394</ele>
        <time>2015-04-02T10:05:26Z</time>
      </trkpt>
      <trkpt lat="45.27564" lon="5.4485">
        <ele>395</ele>
        <time>2015-04-02T10:06:00Z</time>
      </trkpt>
      <trkpt lat="45.27573" lon="5.44854">
        <ele>395</ele>
        <time>2015-04-02T10:06:44Z</time>
      </trkpt>
      <trkpt lat="45.27601" lon="5.4483">
        <ele>397</ele>
        <time>2015-04-02T10:07:49Z</time>
      </trkpt>
      <trkpt lat="45.27628" lon="5.44816">
        <ele>398</ele>
        <time>2015-04-02T10:08:31Z</time>
      </trkpt>
      <trkpt lat="45.27651" lon="5.44817">
        <ele>399</ele>
        <time>2015-04-02T10:10:08Z</time>
      </trkpt>
      <trkpt lat="45.27664" lon="5.44821">
        <ele>399</ele>
        <time>2015-04-02T10:10:42Z</time>
      </trkpt>
      <trkpt lat="45.27684" lon="5.44815">
        <ele>400</ele>
        <time>2015-04-02T10:11:12Z</time>
      </trkpt>
      <trkpt lat="45.27715" lon="5.4482">
        <ele>401</ele>
        <time>2015-04-02T10:11:52Z</time>
      </trkpt>
      <trkpt lat="45.27749" lon="5.44828">
        <ele>402</ele>
        <time>2015-04-02T10:12:27Z</time>
      </trkpt>
      <trkpt lat="45.27785" lon="5.44833">
        <ele>403</ele>
        <time>2015-04-02T10:13:01Z</time>
      </trkpt>
      <trkpt lat="45.27812" lon="5.44811">
        <ele>407</ele>
        <time>2015-04-02T10:13:45Z</time>
      </trkpt>
      <trkpt lat="45.27844" lon="5.44783">
        <ele>413</ele>
        <time>2015-04-02T10:14:39Z</time>
      </trkpt>
      <trkpt lat="45.27886" lon="5.44787">
        <ele>414</ele>
        <time>2015-04-02T10:15:26Z</time>
      </trkpt>
      <trkpt lat="45.27916" lon="5.44806">
        <ele>413</ele>
        <time>2015-04-02T10:16:00Z</time>
      </trkpt>
      <trkpt lat="45.27949" lon="5.44815">
        <ele>413</ele>
        <time>2015-04-02T10:16:35Z</time>
      </trkpt>
      <trkpt lat="45.27986" lon="5.44818">
        <ele>414</ele>
        <time>2015-04-02T10:17:10Z</time>
      </trkpt>
      <trkpt lat="45.2802" lon="5.4482">
        <ele>415</ele>
        <time>2015-04-02T10:17:44Z</time>
      </trkpt>
      <trkpt lat="45.28054" lon="5.44819">
        <ele>416</ele>
        <time>2015-04-02T10:18:19Z</time>
      </trkpt>
      <trkpt lat="45.28088" lon="5.44823">
        <ele>417</ele>
        <time>2015-04-02T10:18:58Z</time>
      </trkpt>
      <trkpt lat="45.28123" lon="5.44827">
        <ele>418</ele>
        <time>2015-04-02T10:21:08Z</time>
      </trkpt>
      <trkpt lat="45.28159" lon="5.44832">
        <ele>418</ele>
        <time>2015-04-02T10:21:56Z</time>
      </trkpt>
      <trkpt lat="45.28207" lon="5.44838">
        <ele>417</ele>
        <time>2015-04-02T10:22:46Z</time>
      </trkpt>
      <trkpt lat="45.28248" lon="5.44839">
        <ele>417</ele>
        <time>2015-04-02T10:23:23Z</time>
      </trkpt>
      <trkpt lat="45.28283" lon="5.44832">
        <ele>418</ele>
        <time>2015-04-02T10:23:58Z</time>
      </trkpt>
      <trkpt lat="45.28325" lon="5.44819">
        <ele>420</ele>
        <time>2015-04-02T10:24:46Z</time>
      </trkpt>
      <trkpt lat="45.28364" lon="5.44813">
        <ele>421</ele>
        <time>2015-04-02T10:25:35Z</time>
      </trkpt>
      <trkpt lat="45.28413" lon="5.44822">
        <ele>424</ele>
        <time>2015-04-02T10:26:27Z</time>
      </trkpt>
      <trkpt lat="45.2845" lon="5.44841">
        <ele>426</ele>
        <time>2015-04-02T10:27:10Z</time>
      </trkpt>
      <trkpt lat="45.28484" lon="5.44855">
        <ele>426</ele>
        <time>2015-04-02T10:27:54Z</time>
      </trkpt>
      <trkpt lat="45.28522" lon="5.44847">
        <ele>430</ele>
        <time>2015-04-02T10:28:34Z</time>
      </trkpt>
      <trkpt lat="45.28531" lon="5.44876">
        <ele>428</ele>
        <time>2015-04-02T10:29:19Z</time>
      </trkpt>
      <trkpt lat="45.28552" lon="5.44898">
        <ele>429</ele>
        <time>2015-04-02T10:29:50Z</time>
      </trkpt>
      <trkpt lat="45.28583" lon="5.44918">
        <ele>431</ele>
        <time>2015-04-02T10:30:26Z</time>
      </trkpt>
      <trkpt lat="45.28613" lon="5.44926">
        <ele>434</ele>
        <time>2015-04-02T10:31:01Z</time>
      </trkpt>
      <trkpt lat="45.28644" lon="5.44947">
        <ele>436</ele>
        <time>2015-04-02T10:31:51Z</time>
      </trkpt>
      <trkpt lat="45.28676" lon="5.44965">
        <ele>435</ele>
        <time>2015-04-02T10:32:28Z</time>
      </trkpt>
      <trkpt lat="45.28711" lon="5.4496">
        <ele>434</ele>
        <time>2015-04-02T10:33:09Z</time>
      </trkpt>
      <trkpt lat="45.28747" lon="5.4497">
        <ele>431</ele>
        <time>2015-04-02T10:33:48Z</time>
      </trkpt>
      <trkpt lat="45.28761" lon="5.45007">
        <ele>426</ele>
        <time>2015-04-02T10:34:20Z</time>
      </trkpt>
      <trkpt lat="45.28762" lon="5.45002">
        <ele>427</ele>
        <time>2015-04-02T10:37:20Z</time>
      </trkpt>
      <trkpt lat="45.28782" lon="5.4497">
        <ele>431</ele>
        <time>2015-04-02T10:38:06Z</time>
      </trkpt>
      <trkpt lat="45.28803" lon="5.44932">
        <ele>438</ele>
        <time>2015-04-02T10:38:43Z</time>
      </trkpt>
      <trkpt lat="45.28837" lon="5.44891">
        <ele>447</ele>
        <time>2015-04-02T10:39:36Z</time>
      </trkpt>
      <trkpt lat="45.28871" lon="5.44866">
        <ele>451</ele>
        <time>2015-04-02T10:40:26Z</time>
      </trkpt>
      <trkpt lat="45.289" lon="5.44833">
        <ele>454</ele>
        <time>2015-04-02T10:41:07Z</time>
      </trkpt>
      <trkpt lat="45.2893" lon="5.44817">
        <ele>458</ele>
        <time>2015-04-02T10:41:50Z</time>
      </trkpt>
      <trkpt lat="45.28983" lon="5.44811">
        <ele>473</ele>
        <time>2015-04-02T10:43:19Z</time>
      </trkpt>
      <trkpt lat="45.29015" lon="5.44787">
        <ele>481</ele>
        <time>2015-04-02T10:50:14Z</time>
      </trkpt>
      <trkpt lat="45.29089" lon="5.44736">
        <ele>503</ele>
        <time>2015-04-02T10:53:33Z</time>
      </trkpt>
      <trkpt lat="45.29132" lon="5.44722">
        <ele>519</ele>
        <time>2015-04-02T10:56:44Z</time>
      </trkpt>
      <trkpt lat="45.29126" lon="5.44759">
        <ele>526</ele>
        <time>2015-04-02T11:03:04Z</time>
      </trkpt>
      <trkpt lat="45.29118" lon="5.44801">
        <ele>532</ele>
        <time>2015-04-02T11:03:45Z</time>
      </trkpt>
      <trkpt lat="45.29107" lon="5.44839">
        <ele>536</ele>
        <time>2015-04-02T11:04:19Z</time>
      </trkpt>
      <trkpt lat="45.29097" lon="5.4488">
        <ele>540</ele>
        <time>2015-04-02T11:04:54Z</time>
      </trkpt>
      <trkpt lat="45.29087" lon="5.44916">
        <ele>544</ele>
        <time>2015-04-02T11:05:33Z</time>
      </trkpt>
      <trkpt lat="45.29075" lon="5.4495">
        <ele>549</ele>
        <time>2015-04-02T11:06:12Z</time>
      </trkpt>
      <trkpt lat="45.29064" lon="5.44985">
        <ele>556</ele>
        <time>2015-04-02T11:06:51Z</time>
      </trkpt>
      <trkpt lat="45.29051" lon="5.4502">
        <ele>563</ele>
        <time>2015-04-02T11:07:31Z</time>
      </trkpt>
      <trkpt lat="45.29037" lon="5.45054">
        <ele>559</ele>
        <time>2015-04-02T11:08:16Z</time>
      </trkpt>
      <trkpt lat="45.2906" lon="5.4506">
        <ele>569</ele>
        <time>2015-04-02T11:09:08Z</time>
      </trkpt>
      <trkpt lat="45.29088" lon="5.45035">
        <ele>578</ele>
        <time>2015-04-02T11:11:19Z</time>
      </trkpt>
      <trkpt lat="45.29112" lon="5.45">
        <ele>578</ele>
        <time>2015-04-02T11:12:00Z</time>
      </trkpt>
      <trkpt lat="45.29145" lon="5.44957">
        <ele>580</ele>
        <time>2015-04-02T11:13:00Z</time>
      </trkpt>
      <trkpt lat="45.29174" lon="5.44913">
        <ele>581</ele>
        <time>2015-04-02T11:13:55Z</time>
      </trkpt>
      <trkpt lat="45.29221" lon="5.44863">
        <ele>590</ele>
        <time>2015-04-02T11:15:16Z</time>
      </trkpt>
      <trkpt lat="45.29248" lon="5.44836">
        <ele>596</ele>
        <time>2015-04-02T11:16:09Z</time>
      </trkpt>
      <trkpt lat="45.29281" lon="5.44799">
        <ele>602</ele>
        <time>2015-04-02T11:17:25Z</time>
      </trkpt>
      <trkpt lat="45.29332" lon="5.44807">
        <ele>614</ele>
        <time>2015-04-02T11:18:36Z</time>
      </trkpt>
      <trkpt lat="45.29363" lon="5.44828">
        <ele>621</ele>
        <time>2015-04-02T11:21:53Z</time>
      </trkpt>
      <trkpt lat="45.29383" lon="5.44919">
        <ele>638</ele>
        <time>2015-04-02T11:23:44Z</time>
      </trkpt>
      <trkpt lat="45.29418" lon="5.44951">
        <ele>643</ele>
        <time>2015-04-02T11:25:20Z</time>
      </trkpt>
      <trkpt lat="45.29417" lon="5.44922">
        <ele>642</ele>
        <time>2015-04-02T11:26:56Z</time>
      </trkpt>
      <trkpt lat="45.29421" lon="5.4487">
        <ele>643</ele>
        <time>2015-04-02T11:27:35Z</time>
      </trkpt>
      <trkpt lat="45.29437" lon="5.44822">
        <ele>651</ele>
        <time>2015-04-02T11:28:14Z</time>
      </trkpt>
      <trkpt lat="45.29447" lon="5.44772">
        <ele>654</ele>
        <time>2015-04-02T11:28:52Z</time>
      </trkpt>
      <trkpt lat="45.29455" lon="5.44709">
        <ele>649</ele>
        <time>2015-04-02T11:29:43Z</time>
      </trkpt>
      <trkpt lat="45.2949" lon="5.4466">
        <ele>655</ele>
        <time>2015-04-02T11:30:32Z</time>
      </trkpt>
      <trkpt lat="45.29543" lon="5.44621">
        <ele>661</ele>
        <time>2015-04-02T11:31:41Z</time>
      </trkpt>
      <trkpt lat="45.29599" lon="5.44586">
        <ele>666</ele>
        <time>2015-04-02T11:32:54Z</time>
      </trkpt>
      <trkpt lat="45.29639" lon="5.44545">
        <ele>669</ele>
        <time>2015-04-02T11:33:47Z</time>
      </trkpt>
      <trkpt lat="45.29647" lon="5.44487">
        <ele>673</ele>
        <time>2015-04-02T11:34:39Z</time>
      </trkpt>
      <trkpt lat="45.29639" lon="5.44415">
        <ele>676</ele>
        <time>2015-04-02T11:35:33Z</time>
      </trkpt>
      <trkpt lat="45.29615" lon="5.4437">
        <ele>676</ele>
        <time>2015-04-02T11:36:23Z</time>
      </trkpt>
      <trkpt lat="45.29594" lon="5.4433">
        <ele>679</ele>
        <time>2015-04-02T11:37:04Z</time>
      </trkpt>
      <trkpt lat="45.29579" lon="5.44293">
        <ele>679</ele>
        <time>2015-04-02T11:37:35Z</time>
      </trkpt>
      <trkpt lat="45.29587" lon="5.44254">
        <ele>681</ele>
        <time>2015-04-02T11:38:07Z</time>
      </trkpt>
      <trkpt lat="45.29605" lon="5.44213">
        <ele>685</ele>
        <time>2015-04-02T11:38:43Z</time>
      </trkpt>
      <trkpt lat="45.2965" lon="5.44176">
        <ele>696</ele>
        <time>2015-04-02T11:40:05Z</time>
      </trkpt>
      <trkpt lat="45.29688" lon="5.44145">
        <ele>702</ele>
        <time>2015-04-02T11:41:06Z</time>
      </trkpt>
      <trkpt lat="45.29691" lon="5.44105">
        <ele>695</ele>
        <time>2015-04-02T11:46:22Z</time>
      </trkpt>
      <trkpt lat="45.29762" lon="5.44067">
        <ele>714</ele>
        <time>2015-04-02T11:48:15Z</time>
      </trkpt>
      <trkpt lat="45.29833" lon="5.43996">
        <ele>731</ele>
        <time>2015-04-02T11:50:22Z</time>
      </trkpt>
      <trkpt lat="45.29887" lon="5.44007">
        <ele>742</ele>
        <time>2015-04-02T11:51:52Z</time>
      </trkpt>
      <trkpt lat="45.29914" lon="5.44038">
        <ele>744</ele>
        <time>2015-04-02T11:52:33Z</time>
      </trkpt>
      <trkpt lat="45.29945" lon="5.44054">
        <ele>745</ele>
        <time>2015-04-02T11:53:06Z</time>
      </trkpt>
      <trkpt lat="45.29968" lon="5.44082">
        <ele>744</ele>
        <time>2015-04-02T11:53:46Z</time>
      </trkpt>
      <trkpt lat="45.3" lon="5.44065">
        <ele>742</ele>
        <time>2015-04-02T11:54:33Z</time>
      </trkpt>
      <trkpt lat="45.3004" lon="5.44033">
        <ele>741</ele>
        <time>2015-04-02T11:55:32Z</time>
      </trkpt>
      <trkpt lat="45.30082" lon="5.44023">
        <ele>741</ele>
        <time>2015-04-02T12:00:45Z</time>
      </trkpt>
      <trkpt lat="45.30107" lon="5.43995">
        <ele>742</ele>
        <time>2015-04-02T12:01:20Z</time>
      </trkpt>
      <trkpt lat="45.30131" lon="5.43975">
        <ele>743</ele>
        <time>2015-04-02T12:03:25Z</time>
      </trkpt>
      <trkpt lat="45.30143" lon="5.44018">
        <ele>743</ele>
        <time>2015-04-02T12:04:06Z</time>
      </trkpt>
      <trkpt lat="45.3015" lon="5.44062">
        <ele>743</ele>
        <time>2015-04-02T12:04:47Z</time>
      </trkpt>
      <trkpt lat="45.30156" lon="5.44108">
        <ele>743</ele>
        <time>2015-04-02T12:05:18Z</time>
      </trkpt>
      <trkpt lat="45.30169" lon="5.44149">
        <ele>744</ele>
        <time>2015-04-02T12:05:50Z</time>
      </trkpt>
      <trkpt lat="45.30178" lon="5.44209">
        <ele>744</ele>
        <time>2015-04-02T12:06:31Z</time>
      </trkpt>
      <trkpt lat="45.30183" lon="5.44263">
        <ele>744</ele>
        <time>2015-04-02T12:07:05Z</time>
      </trkpt>
      <trkpt lat="45.30196" lon="5.44309">
        <ele>744</ele>
        <time>2015-04-02T12:07:37Z</time>
      </trkpt>
      <trkpt lat="45.30202" lon="5.44361">
        <ele>744</ele>
        <time>2015-04-02T12:08:15Z</time>
      </trkpt>
      <trkpt lat="45.30215" lon="5.44405">
        <ele>745</ele>
        <time>2015-04-02T12:08:45Z</time>
      </trkpt>
      <trkpt lat="45.30223" lon="5.44451">
        <ele>746</ele>
        <time>2015-04-02T12:09:17Z</time>
      </trkpt>
      <trkpt lat="45.3023" lon="5.44496">
        <ele>742</ele>
        <time>2015-04-02T12:09:51Z</time>
      </trkpt>
      <trkpt lat="45.30226" lon="5.44546">
        <ele>741</ele>
        <time>2015-04-02T12:10:43Z</time>
      </trkpt>
      <trkpt lat="45.30223" lon="5.44587">
        <ele>740</ele>
        <time>2015-04-02T12:11:14Z</time>
      </trkpt>
      <trkpt lat="45.30229" lon="5.44633">
        <ele>741</ele>
        <time>2015-04-02T12:11:57Z</time>
      </trkpt>
      <trkpt lat="45.30267" lon="5.44659">
        <ele>743</ele>
        <time>2015-04-02T12:12:41Z</time>
      </trkpt>
      <trkpt lat="45.30299" lon="5.44674">
        <ele>739</ele>
        <time>2015-04-02T12:13:18Z</time>
      </trkpt>
      <trkpt lat="45.30325" lon="5.44704">
        <ele>734</ele>
        <time>2015-04-02T12:14:01Z</time>
      </trkpt>
      <trkpt lat="45.30366" lon="5.44712">
        <ele>727</ele>
        <time>2015-04-02T12:14:50Z</time>
      </trkpt>
      <trkpt lat="45.30411" lon="5.44721">
        <ele>716</ele>
        <time>2015-04-02T12:15:44Z</time>
      </trkpt>
      <trkpt lat="45.30449" lon="5.44743">
        <ele>703</ele>
        <time>2015-04-02T12:16:31Z</time>
      </trkpt>
      <trkpt lat="45.30485" lon="5.44733">
        <ele>698</ele>
        <time>2015-04-02T12:17:18Z</time>
      </trkpt>
      <trkpt lat="45.30482" lon="5.44751">
        <ele>696</ele>
        <time>2015-04-02T12:18:00Z</time>
      </trkpt>
      <trkpt lat="45.30454" lon="5.44773">
        <ele>698</ele>
        <time>2015-04-02T12:18:34Z</time>
      </trkpt>
      <trkpt lat="45.30427" lon="5.44804">
        <ele>701</ele>
        <time>2015-04-02T12:19:07Z</time>
      </trkpt>
      <trkpt lat="45.30407" lon="5.44838">
        <ele>703</ele>
        <time>2015-04-02T12:19:46Z</time>
      </trkpt>
      <trkpt lat="45.30393" lon="5.4488">
        <ele>705</ele>
        <time>2015-04-02T12:20:29Z</time>
      </trkpt>
      <trkpt lat="45.30409" lon="5.44922">
        <ele>701</ele>
        <time>2015-04-02T12:21:04Z</time>
      </trkpt>
      <trkpt lat="45.30426" lon="5.4496">
        <ele>697</ele>
        <time>2015-04-02T12:21:32Z</time>
      </trkpt>
      <trkpt lat="45.30444" lon="5.44991">
        <ele>694</ele>
        <time>2015-04-02T12:21:59Z</time>
      </trkpt>
      <trkpt lat="45.30459" lon="5.45026">
        <ele>692</ele>
        <time>2015-04-02T12:22:27Z</time>
      </trkpt>
      <trkpt lat="45.30475" lon="5.45062">
        <ele>690</ele>
        <time>2015-04-02T12:22:53Z</time>
      </trkpt>
      <trkpt lat="45.30486" lon="5.451">
        <ele>689</ele>
        <time>2015-04-02T12:23:24Z</time>
      </trkpt>
      <trkpt lat="45.30486" lon="5.45141">
        <ele>689</ele>
        <time>2015-04-02T12:23:58Z</time>
      </trkpt>
      <trkpt lat="45.30476" lon="5.45179">
        <ele>690</ele>
        <time>2015-04-02T12:24:25Z</time>
      </trkpt>
      <trkpt lat="45.30475" lon="5.45218">
        <ele>691</ele>
        <time>2015-04-02T12:24:56Z</time>
      </trkpt>
      <trkpt lat="45.30479" lon="5.45253">
        <ele>691</ele>
        <time>2015-04-02T12:25:31Z</time>
      </trkpt>
      <trkpt lat="45.30509" lon="5.45283">
        <ele>689</ele>
        <time>2015-04-02T12:26:06Z</time>
      </trkpt>
      <trkpt lat="45.30554" lon="5.45311">
        <ele>686</ele>
        <time>2015-04-02T12:26:36Z</time>
      </trkpt>
      <trkpt lat="45.30609" lon="5.45343">
        <ele>681</ele>
        <time>2015-04-02T12:27:11Z</time>
      </trkpt>
      <trkpt lat="45.30628" lon="5.45402">
        <ele>681</ele>
        <time>2015-04-02T12:27:55Z</time>
      </trkpt>
      <trkpt lat="45.30619" lon="5.45459">
        <ele>684</ele>
        <time>2015-04-02T12:28:35Z</time>
      </trkpt>
      <trkpt lat="45.30611" lon="5.45525">
        <ele>690</ele>
        <time>2015-04-02T12:29:15Z</time>
      </trkpt>
      <trkpt lat="45.30589" lon="5.45565">
        <ele>695</ele>
        <time>2015-04-02T12:29:45Z</time>
      </trkpt>
      <trkpt lat="45.3058" lon="5.45578">
        <ele>695</ele>
        <time>2015-04-02T12:30:14Z</time>
      </trkpt>
      <trkpt lat="45.30514" lon="5.45504">
        <ele>699</ele>
        <time>2015-04-02T12:33:06Z</time>
      </trkpt>
      <trkpt lat="45.30484" lon="5.45546">
        <ele>697</ele>
        <time>2015-04-02T13:28:20Z</time>
      </trkpt>
      <trkpt lat="45.30507" lon="5.45566">
        <ele>696</ele>
        <time>2015-04-02T13:28:52Z</time>
      </trkpt>
      <trkpt lat="45.30522" lon="5.45596">
        <ele>694</ele>
        <time>2015-04-02T13:29:20Z</time>
      </trkpt>
      <trkpt lat="45.3053" lon="5.45633">
        <ele>693</ele>
        <time>2015-04-02T13:29:50Z</time>
      </trkpt>
      <trkpt lat="45.30549" lon="5.45651">
        <ele>696</ele>
        <time>2015-04-02T13:31:32Z</time>
      </trkpt>
      <trkpt lat="45.30575" lon="5.45668">
        <ele>698</ele>
        <time>2015-04-02T13:32:04Z</time>
      </trkpt>
      <trkpt lat="45.30604" lon="5.45683">
        <ele>700</ele>
        <time>2015-04-02T13:32:48Z</time>
      </trkpt>
      <trkpt lat="45.30632" lon="5.457">
        <ele>700</ele>
        <time>2015-04-02T13:33:24Z</time>
      </trkpt>
      <trkpt lat="45.30653" lon="5.45722">
        <ele>700</ele>
        <time>2015-04-02T13:33:53Z</time>
      </trkpt>
      <trkpt lat="45.30673" lon="5.45747">
        <ele>700</ele>
        <time>2015-04-02T13:34:23Z</time>
      </trkpt>
      <trkpt lat="45.30698" lon="5.45769">
        <ele>699</ele>
        <time>2015-04-02T13:35:02Z</time>
      </trkpt>
      <trkpt lat="45.30723" lon="5.45789">
        <ele>700</ele>
        <time>2015-04-02T13:35:34Z</time>
      </trkpt>
      <trkpt lat="45.30744" lon="5.45816">
        <ele>702</ele>
        <time>2015-04-02T13:36:04Z</time>
      </trkpt>
      <trkpt lat="45.30762" lon="5.45848">
        <ele>704</ele>
        <time>2015-04-02T13:36:32Z</time>
      </trkpt>
      <trkpt lat="45.30776" lon="5.45884">
        <ele>706</ele>
        <time>2015-04-02T13:37:02Z</time>
      </trkpt>
      <trkpt lat="45.30788" lon="5.45919">
        <ele>706</ele>
        <time>2015-04-02T13:37:34Z</time>
      </trkpt>
      <trkpt lat="45.30798" lon="5.45959">
        <ele>705</ele>
        <time>2015-04-02T13:38:04Z</time>
      </trkpt>
      <trkpt lat="45.30811" lon="5.45996">
        <ele>703</ele>
        <time>2015-04-02T13:38:32Z</time>
      </trkpt>
      <trkpt lat="45.30826" lon="5.46031">
        <ele>701</ele>
        <time>2015-04-02T13:39:00Z</time>
      </trkpt>
      <trkpt lat="45.30841" lon="5.46064">
        <ele>699</ele>
        <time>2015-04-02T13:39:27Z</time>
      </trkpt>
      <trkpt lat="45.30863" lon="5.46084">
        <ele>700</ele>
        <time>2015-04-02T13:39:57Z</time>
      </trkpt>
      <trkpt lat="45.30892" lon="5.46063">
        <ele>705</ele>
        <time>2015-04-02T13:40:32Z</time>
      </trkpt>
      <trkpt lat="45.30937" lon="5.46022">
        <ele>714</ele>
        <time>2015-04-02T13:41:14Z</time>
      </trkpt>
      <trkpt lat="45.30957" lon="5.46001">
        <ele>719</ele>
        <time>2015-04-02T13:42:31Z</time>
      </trkpt>
      <trkpt lat="45.31003" lon="5.46052">
        <ele>726</ele>
        <time>2015-04-02T13:43:26Z</time>
      </trkpt>
      <trkpt lat="45.31062" lon="5.46061">
        <ele>739</ele>
        <time>2015-04-02T13:46:10Z</time>
      </trkpt>
      <trkpt lat="45.31074" lon="5.4606">
        <ele>742</ele>
        <time>2015-04-02T13:49:41Z</time>
      </trkpt>
      <trkpt lat="45.31101" lon="5.46073">
        <ele>745</ele>
        <time>2015-04-02T13:50:15Z</time>
      </trkpt>
      <trkpt lat="45.31118" lon="5.46099">
        <ele>744</ele>
        <time>2015-04-02T13:52:05Z</time>
      </trkpt>
      <trkpt lat="45.31134" lon="5.46134">
        <ele>743</ele>
        <time>2015-04-02T13:52:38Z</time>
      </trkpt>
      <trkpt lat="45.31152" lon="5.46166">
        <ele>746</ele>
        <time>2015-04-02T13:53:15Z</time>
      </trkpt>
      <trkpt lat="45.31169" lon="5.46199">
        <ele>750</ele>
        <time>2015-04-02T13:53:51Z</time>
      </trkpt>
      <trkpt lat="45.31185" lon="5.46235">
        <ele>751</ele>
        <time>2015-04-02T13:54:22Z</time>
      </trkpt>
      <trkpt lat="45.31202" lon="5.46269">
        <ele>754</ele>
        <time>2015-04-02T13:54:52Z</time>
      </trkpt>
      <trkpt lat="45.31216" lon="5.46306">
        <ele>756</ele>
        <time>2015-04-02T13:55:26Z</time>
      </trkpt>
      <trkpt lat="45.31231" lon="5.46341">
        <ele>755</ele>
        <time>2015-04-02T13:56:03Z</time>
      </trkpt>
      <trkpt lat="45.31251" lon="5.46381">
        <ele>754</ele>
        <time>2015-04-02T13:56:43Z</time>
      </trkpt>
      <trkpt lat="45.31291" lon="5.46393">
        <ele>757</ele>
        <time>2015-04-02T13:57:30Z</time>
      </trkpt>
      <trkpt lat="45.31338" lon="5.46385">
        <ele>755</ele>
        <time>2015-04-02T13:59:45Z</time>
      </trkpt>
      <trkpt lat="45.31375" lon="5.4639">
        <ele>750</ele>
        <time>2015-04-02T14:00:17Z</time>
      </trkpt>
      <trkpt lat="45.31409" lon="5.46362">
        <ele>748</ele>
        <time>2015-04-02T14:00:48Z</time>
      </trkpt>
      <trkpt lat="45.31425" lon="5.46322">
        <ele>747</ele>
        <time>2015-04-02T14:01:18Z</time>
      </trkpt>
      <trkpt lat="45.31462" lon="5.46311">
        <ele>743</ele>
        <time>2015-04-02T14:02:09Z</time>
      </trkpt>
      <trkpt lat="45.31493" lon="5.46303">
        <ele>740</ele>
        <time>2015-04-02T14:02:35Z</time>
      </trkpt>
      <trkpt lat="45.31519" lon="5.463">
        <ele>737</ele>
        <time>2015-04-02T14:03:24Z</time>
      </trkpt>
      <trkpt lat="45.31547" lon="5.46292">
        <ele>734</ele>
        <time>2015-04-02T14:03:53Z</time>
      </trkpt>
      <trkpt lat="45.31574" lon="5.46292">
        <ele>730</ele>
        <time>2015-04-02T14:04:21Z</time>
      </trkpt>
      <trkpt lat="45.31604" lon="5.46293">
        <ele>724</ele>
        <time>2015-04-02T14:04:52Z</time>
      </trkpt>
      <trkpt lat="45.31632" lon="5.46289">
        <ele>718</ele>
        <time>2015-04-02T14:06:08Z</time>
      </trkpt>
      <trkpt lat="45.31659" lon="5.46271">
        <ele>711</ele>
        <time>2015-04-02T14:06:42Z</time>
      </trkpt>
      <trkpt lat="45.31683" lon="5.46272">
        <ele>703</ele>
        <time>2015-04-02T14:07:31Z</time>
      </trkpt>
      <trkpt lat="45.3169" lon="5.46308">
        <ele>698</ele>
        <time>2015-04-02T14:08:05Z</time>
      </trkpt>
      <trkpt lat="45.3168" lon="5.46353">
        <ele>697</ele>
        <time>2015-04-02T14:08:48Z</time>
      </trkpt>
      <trkpt lat="45.31667" lon="5.46387">
        <ele>697</ele>
        <time>2015-04-02T14:09:22Z</time>
      </trkpt>
      <trkpt lat="45.31648" lon="5.46437">
        <ele>694</ele>
        <time>2015-04-02T14:10:05Z</time>
      </trkpt>
      <trkpt lat="45.31641" lon="5.46482">
        <ele>687</ele>
        <time>2015-04-02T14:10:38Z</time>
      </trkpt>
      <trkpt lat="45.31642" lon="5.46528">
        <ele>679</ele>
        <time>2015-04-02T14:11:16Z</time>
      </trkpt>
      <trkpt lat="45.31661" lon="5.46593">
        <ele>666</ele>
        <time>2015-04-02T14:15:02Z</time>
      </trkpt>
      <trkpt lat="45.31695" lon="5.46652">
        <ele>653</ele>
        <time>2015-04-02T14:16:16Z</time>
      </trkpt>
      <trkpt lat="45.31745" lon="5.46694">
        <ele>642</ele>
        <time>2015-04-02T14:17:35Z</time>
      </trkpt>
      <trkpt lat="45.31798" lon="5.46725">
        <ele>628</ele>
        <time>2015-04-02T14:20:01Z</time>
      </trkpt>
      <trkpt lat="45.31814" lon="5.46783">
        <ele>608</ele>
        <time>2015-04-02T14:21:03Z</time>
      </trkpt>
      <trkpt lat="45.31836" lon="5.46834">
        <ele>593</ele>
        <time>2015-04-02T14:22:09Z</time>
      </trkpt>
      <trkpt lat="45.31912" lon="5.46851">
        <ele>585</ele>
        <time>2015-04-02T14:26:30Z</time>
      </trkpt>
      <trkpt lat="45.31946" lon="5.46825">
        <ele>588</ele>
        <time>2015-04-02T14:27:06Z</time>
      </trkpt>
      <trkpt lat="45.31985" lon="5.46781">
        <ele>594</ele>
        <time>2015-04-02T14:28:13Z</time>
      </trkpt>
      <trkpt lat="45.32099" lon="5.46649">
        <ele>620</ele>
        <time>2015-04-02T14:31:49Z</time>
      </trkpt>
      <trkpt lat="45.32149" lon="5.46583">
        <ele>634</ele>
        <time>2015-04-02T14:33:21Z</time>
      </trkpt>
      <trkpt lat="45.32195" lon="5.46501">
        <ele>645</ele>
        <time>2015-04-02T14:34:58Z</time>
      </trkpt>
      <trkpt lat="45.32322" lon="5.46303">
        <ele>678</ele>
        <time>2015-04-02T14:39:02Z</time>
      </trkpt>
      <trkpt lat="45.32326" lon="5.46356">
        <ele>691</ele>
        <time>2015-04-02T14:41:55Z</time>
      </trkpt>
      <trkpt lat="45.32315" lon="5.46549">
        <ele>709</ele>
        <time>2015-04-02T14:45:09Z</time>
      </trkpt>
      <trkpt lat="45.32327" lon="5.46615">
        <ele>720</ele>
        <time>2015-04-02T14:46:25Z</time>
      </trkpt>
      <trkpt lat="45.32339" lon="5.46664">
        <ele>726</ele>
        <time>2015-04-02T14:47:23Z</time>
      </trkpt>
      <trkpt lat="45.3236" lon="5.46671">
        <ele>728</ele>
        <time>2015-04-02T14:49:25Z</time>
      </trkpt>
      <trkpt lat="45.32347" lon="5.46679">
        <ele>728</ele>
        <time>2015-04-02T14:51:01Z</time>
      </trkpt>
      <trkpt lat="45.32375" lon="5.46724">
        <ele>734</ele>
        <time>2015-04-02T14:52:17Z</time>
      </trkpt>
      <trkpt lat="45.32382" lon="5.46771">
        <ele>735</ele>
        <time>2015-04-02T14:52:53Z</time>
      </trkpt>
      <trkpt lat="45.3238" lon="5.46762">
        <ele>735</ele>
        <time>2015-04-02T14:53:47Z</time>
      </trkpt>
      <trkpt lat="45.32375" lon="5.46719">
        <ele>734</ele>
        <time>2015-04-02T14:54:23Z</time>
      </trkpt>
      <trkpt lat="45.32375" lon="5.46675">
        <ele>729</ele>
        <time>2015-04-02T14:55:24Z</time>
      </trkpt>
      <trkpt lat="45.32377" lon="5.46633">
        <ele>728</ele>
        <time>2015-04-02T14:55:51Z</time>
      </trkpt>
      <trkpt lat="45.32382" lon="5.46594">
        <ele>728</ele>
        <time>2015-04-02T14:56:29Z</time>
      </trkpt>
      <trkpt lat="45.32383" lon="5.46587">
        <ele>728</ele>
        <time>2015-04-02T14:59:33Z</time>
      </trkpt>
      <trkpt lat="45.32384" lon="5.46625">
        <ele>728</ele>
        <time>2015-04-02T15:00:49Z</time>
      </trkpt>
      <trkpt lat="45.32367" lon="5.4665">
        <ele>728</ele>
        <time>2015-04-02T15:01:30Z</time>
      </trkpt>
      <trkpt lat="45.32358" lon="5.46674">
        <ele>728</ele>
        <time>2015-04-02T15:02:33Z</time>
      </trkpt>
      <trkpt lat="45.32343" lon="5.46658">
        <ele>726</ele>
        <time>2015-04-02T15:12:44Z</time>
      </trkpt>
      <trkpt lat="45.32327" lon="5.4659">
        <ele>717</ele>
        <time>2015-04-02T15:13:59Z</time>
      </trkpt>
      <trkpt lat="45.32326" lon="5.4653">
        <ele>712</ele>
        <time>2015-04-02T15:14:49Z</time>
      </trkpt>
      <trkpt lat="45.32327" lon="5.46479">
        <ele>707</ele>
        <time>2015-04-02T15:15:26Z</time>
      </trkpt>
      <trkpt lat="45.32333" lon="5.46436">
        <ele>705</ele>
        <time>2015-04-02T15:16:02Z</time>
      </trkpt>
      <trkpt lat="45.32344" lon="5.46396">
        <ele>704</ele>
        <time>2015-04-02T15:16:35Z</time>
      </trkpt>
      <trkpt lat="45.32346" lon="5.46343">
        <ele>697</ele>
        <time>2015-04-02T15:17:19Z</time>
      </trkpt>
      <trkpt lat="45.3235" lon="5.4627">
        <ele>684</ele>
        <time>2015-04-02T15:18:13Z</time>
      </trkpt>
      <trkpt lat="45.32329" lon="5.46297">
        <ele>681</ele>
        <time>2015-04-02T15:18:51Z</time>
      </trkpt>
      <trkpt lat="45.32304" lon="5.46336">
        <ele>677</ele>
        <time>2015-04-02T15:19:31Z</time>
      </trkpt>
      <trkpt lat="45.32271" lon="5.46381">
        <ele>667</ele>
        <time>2015-04-02T15:20:26Z</time>
      </trkpt>
      <trkpt lat="45.32233" lon="5.46421">
        <ele>653</ele>
        <time>2015-04-02T15:21:25Z</time>
      </trkpt>
      <trkpt lat="45.32211" lon="5.46463">
        <ele>648</ele>
        <time>2015-04-02T15:22:05Z</time>
      </trkpt>
      <trkpt lat="45.32185" lon="5.46502">
        <ele>641</ele>
        <time>2015-04-02T15:22:43Z</time>
      </trkpt>
      <trkpt lat="45.32166" lon="5.46536">
        <ele>636</ele>
        <time>2015-04-02T15:23:11Z</time>
      </trkpt>
      <trkpt lat="45.32146" lon="5.46567">
        <ele>631</ele>
        <time>2015-04-02T15:23:35Z</time>
      </trkpt>
      <trkpt lat="45.32129" lon="5.46599">
        <ele>627</ele>
        <time>2015-04-02T15:24:01Z</time>
      </trkpt>
      <trkpt lat="45.32096" lon="5.46626">
        <ele>616</ele>
        <time>2015-04-02T15:24:31Z</time>
      </trkpt>
      <trkpt lat="45.32079" lon="5.46663">
        <ele>614</ele>
        <time>2015-04-02T15:25:02Z</time>
      </trkpt>
      <trkpt lat="45.32065" lon="5.46698">
        <ele>613</ele>
        <time>2015-04-02T15:25:29Z</time>
      </trkpt>
      <trkpt lat="45.3204" lon="5.46733">
        <ele>608</ele>
        <time>2015-04-02T15:25:59Z</time>
      </trkpt>
      <trkpt lat="45.32009" lon="5.46757">
        <ele>598</ele>
        <time>2015-04-02T15:26:31Z</time>
      </trkpt>
      <trkpt lat="45.31975" lon="5.46778">
        <ele>590</ele>
        <time>2015-04-02T15:27:02Z</time>
      </trkpt>
      <trkpt lat="45.31955" lon="5.46802">
        <ele>588</ele>
        <time>2015-04-02T15:27:49Z</time>
      </trkpt>
      <trkpt lat="45.31925" lon="5.46822">
        <ele>585</ele>
        <time>2015-04-02T15:28:21Z</time>
      </trkpt>
      <trkpt lat="45.31888" lon="5.46845">
        <ele>584</ele>
        <time>2015-04-02T15:28:56Z</time>
      </trkpt>
      <trkpt lat="45.31872" lon="5.46878">
        <ele>582</ele>
        <time>2015-04-02T15:29:23Z</time>
      </trkpt>
      <trkpt lat="45.31844" lon="5.46908">
        <ele>579</ele>
        <time>2015-04-02T15:29:54Z</time>
      </trkpt>
      <trkpt lat="45.31832" lon="5.46941">
        <ele>576</ele>
        <time>2015-04-02T15:32:48Z</time>
      </trkpt>
    </trkseg>
  </trk>
</gpx>